createdAt,value
2022-10-19T00:01:02.892Z,2.57
2022-10-19T00:03:30.799Z,2.70
2022-10-19T00:06:00.868Z,2.23
2022-10-19T00:08:29.271Z,2.30
2022-10-19T00:10:57.123Z,2.50
2022-10-19T00:13:25.014Z,2.53
2022-10-19T00:15:52.824Z,2.17
2022-10-19T00:18:21.018Z,2.20
2022-10-19T00:20:49.007Z,2.43
2022-10-19T00:23:18.158Z,2.33
2022-10-19T00:25:56.516Z,2.30
2022-10-19T00:28:24.363Z,2.33
2022-10-19T00:30:52.290Z,2.53
2022-10-19T00:33:22.523Z,2.33
2022-10-19T00:35:51.487Z,2.00
2022-10-19T00:38:23.308Z,1.97
2022-10-19T00:40:51.213Z,2.20
2022-10-19T00:43:21.258Z,2.43
2022-10-19T00:45:49.845Z,2.20
2022-10-19T00:48:21.102Z,2.17
2022-10-19T00:50:51.003Z,2.00
2022-10-19T00:53:20.575Z,2.60
2022-10-19T00:55:48.483Z,2.57
2022-10-19T00:58:17.807Z,2.10
2022-10-19T01:00:45.686Z,2.53
2022-10-19T01:03:14.571Z,2.33
2022-10-19T01:05:42.855Z,2.50
2022-10-19T01:08:11.180Z,2.90
2022-10-19T01:10:49.374Z,2.37
2022-10-19T01:13:30.051Z,2.60
2022-10-19T01:16:04.904Z,2.73
2022-10-19T01:18:40.358Z,2.30
2022-10-19T01:21:22.746Z,2.60
2022-10-19T01:24:18.008Z,2.40
2022-10-19T01:27:05.876Z,2.70
2022-10-19T01:29:52.231Z,2.40
2022-10-19T01:32:27.184Z,2.67
2022-10-19T01:35:02.991Z,2.57
2022-10-19T01:37:38.712Z,2.60
2022-10-19T01:40:11.873Z,2.27
2022-10-19T01:42:46.426Z,2.17
2022-10-19T01:45:19.671Z,2.23
2022-10-19T01:47:51.308Z,2.50
2022-10-19T01:50:25.508Z,2.37
2022-10-19T01:52:54.471Z,2.70
2022-10-19T01:55:25.591Z,2.30
2022-10-19T01:57:59.468Z,2.30
2022-10-19T02:00:30.715Z,2.87
2022-10-19T02:03:00.624Z,2.70
2022-10-19T02:05:32.473Z,2.30
2022-10-19T02:08:03.565Z,2.50
2022-10-19T02:10:33.861Z,2.13
2022-10-19T02:13:03.967Z,2.30
2022-10-19T02:15:37.047Z,2.20
2022-10-19T02:18:07.157Z,2.97
2022-10-19T02:20:38.219Z,2.20
2022-10-19T02:23:06.664Z,2.27
2022-10-19T02:25:35.184Z,2.37
2022-10-19T02:28:05.299Z,2.40
2022-10-19T02:30:35.196Z,2.10
2022-10-19T02:33:03.053Z,3.63
2022-10-19T02:35:32.045Z,2.30
2022-10-19T02:38:04.592Z,2.20
2022-10-19T02:40:35.316Z,2.60
2022-10-19T02:43:07.133Z,2.40
2022-10-19T02:45:41.427Z,2.10
2022-10-19T02:48:14.007Z,2.57
2022-10-19T02:50:45.177Z,2.20
2022-10-19T02:53:13.313Z,2.53
2022-10-19T02:55:41.982Z,2.13
2022-10-19T02:58:10.156Z,2.13
2022-10-19T03:00:41.228Z,2.70
2022-10-19T03:03:09.151Z,2.60
2022-10-19T03:05:36.946Z,2.97
2022-10-19T03:08:05.174Z,2.77
2022-10-19T03:10:33.514Z,3.00
2022-10-19T03:13:01.718Z,2.60
2022-10-19T03:15:30.364Z,2.90
2022-10-19T03:17:59.820Z,2.50
2022-10-19T03:20:28.012Z,2.70
2022-10-19T03:22:55.764Z,2.67
2022-10-19T03:25:23.676Z,2.83
2022-10-19T03:27:51.479Z,2.47
2022-10-19T03:30:19.644Z,2.90
2022-10-19T03:32:47.572Z,2.60
2022-10-19T03:35:17.508Z,2.90
2022-10-19T03:37:45.375Z,2.20
2022-10-19T03:40:13.223Z,2.33
2022-10-19T03:42:40.997Z,2.30
2022-10-19T03:45:09.566Z,2.30
2022-10-19T03:47:37.495Z,2.77
2022-10-19T03:50:06.731Z,2.30
2022-10-19T03:52:36.299Z,2.33
2022-10-19T03:55:04.042Z,2.90
2022-10-19T03:57:33.478Z,2.63
2022-10-19T04:00:02.000Z,2.27
2022-10-19T04:02:30.759Z,4.00
2022-10-19T04:04:58.542Z,2.27
2022-10-19T04:07:26.353Z,2.23
2022-10-19T04:09:56.172Z,2.23
2022-10-19T04:12:24.076Z,2.27
2022-10-19T04:14:57.197Z,2.00
2022-10-19T04:17:26.519Z,2.20
2022-10-19T04:19:54.331Z,2.40
2022-10-19T04:22:22.423Z,2.03
2022-10-19T04:24:50.249Z,2.10
2022-10-19T04:27:19.403Z,2.27
2022-10-19T04:29:47.364Z,2.00
2022-10-19T04:32:15.332Z,2.20
2022-10-19T04:34:43.176Z,2.40
2022-10-19T04:37:11.280Z,2.20
2022-10-19T04:39:41.408Z,2.50
2022-10-19T04:42:11.315Z,2.50
2022-10-19T04:44:41.579Z,2.13
2022-10-19T04:47:09.654Z,2.10
2022-10-19T04:49:37.478Z,2.00
2022-10-19T04:52:05.829Z,2.17
2022-10-19T04:54:33.697Z,2.43
2022-10-19T04:57:01.588Z,2.50
2022-10-19T04:59:29.509Z,2.20
2022-10-19T05:01:59.451Z,2.60
2022-10-19T05:04:27.583Z,2.60
2022-10-19T05:06:55.345Z,2.50
2022-10-19T05:09:23.377Z,2.40
2022-10-19T05:11:51.392Z,2.40
2022-10-19T05:14:19.289Z,2.33
2022-10-19T05:16:47.259Z,2.43
2022-10-19T05:19:16.861Z,2.33
2022-10-19T05:21:44.712Z,2.50
2022-10-19T05:24:13.989Z,2.00
2022-10-19T05:26:41.959Z,2.10
2022-10-19T05:29:13.957Z,2.43
2022-10-19T05:31:42.043Z,2.10
2022-10-19T05:34:10.945Z,2.40
2022-10-19T05:36:41.193Z,2.43
2022-10-19T05:39:13.226Z,2.47
2022-10-19T05:41:45.073Z,2.87
2022-10-19T05:44:16.121Z,2.70
2022-10-19T05:46:46.120Z,2.60
2022-10-19T05:49:18.566Z,2.40
2022-10-19T05:51:49.729Z,2.50
2022-10-19T05:54:17.588Z,2.53
2022-10-19T05:56:46.283Z,2.50
2022-10-19T05:59:17.020Z,2.67
2022-10-19T06:01:45.506Z,3.10
2022-10-19T06:04:14.948Z,2.93
2022-10-19T06:06:44.036Z,2.87
2022-10-19T06:09:14.619Z,3.47
2022-10-19T06:11:44.388Z,3.07
2022-10-19T06:14:19.172Z,3.00
2022-10-19T06:16:47.283Z,3.30
2022-10-19T06:19:15.065Z,3.10
2022-10-19T06:21:45.814Z,2.90
2022-10-19T06:24:15.917Z,3.40
2022-10-19T06:26:44.046Z,3.33
2022-10-19T06:29:12.128Z,3.00
2022-10-19T06:31:40.194Z,2.93
2022-10-19T06:34:10.207Z,3.40
2022-10-19T06:36:38.055Z,3.60
2022-10-19T06:39:06.284Z,3.10
2022-10-19T06:41:35.769Z,3.30
2022-10-19T06:44:03.900Z,3.37
2022-10-19T06:46:32.317Z,3.37
2022-10-19T06:49:02.223Z,2.80
2022-10-19T06:51:32.114Z,3.03
2022-10-19T06:53:59.904Z,3.40
2022-10-19T06:56:28.412Z,3.27
2022-10-19T06:58:59.499Z,3.10
2022-10-19T07:01:27.567Z,3.33
2022-10-19T07:03:55.728Z,3.00
2022-10-19T07:06:24.253Z,3.37
2022-10-19T07:08:53.534Z,2.90
2022-10-19T07:11:23.341Z,3.17
2022-10-19T07:13:51.675Z,2.83
2022-10-19T07:16:21.849Z,3.40
2022-10-19T07:18:52.881Z,3.10
2022-10-19T07:21:22.978Z,3.50
2022-10-19T07:23:50.961Z,3.67
2022-10-19T07:26:21.444Z,3.70
2022-10-19T07:28:51.276Z,3.37
2022-10-19T07:31:23.103Z,3.20
2022-10-19T07:33:54.574Z,3.03
2022-10-19T07:36:24.675Z,3.47
2022-10-19T07:38:52.837Z,3.53
2022-10-19T07:41:23.380Z,3.57
2022-10-19T07:43:52.470Z,3.90
2022-10-19T07:46:25.536Z,3.60
2022-10-19T07:48:54.479Z,3.60
2022-10-19T07:51:23.699Z,3.60
2022-10-19T07:53:51.879Z,3.83
2022-10-19T07:56:21.771Z,3.63
2022-10-19T07:58:50.608Z,3.73
2022-10-19T08:01:20.536Z,4.23
2022-10-19T08:04:48.698Z,4.40
2022-10-19T08:06:38.526Z,4.17
2022-10-19T08:09:07.157Z,4.07
2022-10-19T08:11:37.210Z,4.43
2022-10-19T08:14:05.357Z,4.37
2022-10-19T08:16:37.392Z,5.23
2022-10-19T08:19:08.539Z,4.13
2022-10-19T08:21:37.964Z,4.70
2022-10-19T08:24:06.877Z,4.50
2022-10-19T08:26:36.663Z,4.43
2022-10-19T08:29:06.468Z,4.87
2022-10-19T08:31:35.692Z,4.17
2022-10-19T08:34:03.955Z,4.90
2022-10-19T08:36:35.705Z,4.83
2022-10-19T08:39:05.191Z,4.70
2022-10-19T08:41:38.659Z,5.10
2022-10-19T08:44:32.111Z,4.80
2022-10-19T08:47:07.758Z,5.13
2022-10-19T08:49:36.436Z,4.73
2022-10-19T08:52:09.366Z,4.20
2022-10-19T08:54:43.857Z,4.47
2022-10-19T08:57:28.934Z,4.33
2022-10-19T09:00:04.183Z,3.87
2022-10-19T09:02:45.007Z,3.50
2022-10-19T09:05:22.041Z,3.73
2022-10-19T09:07:53.362Z,3.77
2022-10-19T09:10:25.864Z,3.43
2022-10-19T09:12:59.409Z,3.33
2022-10-19T09:15:30.680Z,3.27
2022-10-19T09:17:58.979Z,2.90
2022-10-19T09:20:33.405Z,2.73
2022-10-19T09:23:13.498Z,2.43
2022-10-19T09:25:42.311Z,2.50
2022-10-19T09:28:20.736Z,2.07
2022-10-19T09:30:51.617Z,2.10
2022-10-19T09:33:29.779Z,2.53
2022-10-19T09:35:59.128Z,2.20
2022-10-19T09:38:29.499Z,2.00
2022-10-19T09:40:58.536Z,1.43
2022-10-19T09:43:28.243Z,1.73
2022-10-19T09:46:01.230Z,1.80
2022-10-19T09:48:33.590Z,1.47
2022-10-19T09:51:04.880Z,1.40
2022-10-19T09:53:34.155Z,1.00
2022-10-19T09:56:07.122Z,1.30
2022-10-19T09:58:36.657Z,1.10
2022-10-19T10:01:04.873Z,1.00
2022-10-19T10:03:35.373Z,1.23
2022-10-19T10:06:06.978Z,1.00
2022-10-19T10:08:39.484Z,1.03
2022-10-19T10:11:11.505Z,1.20
2022-10-19T10:13:42.063Z,1.03
2022-10-19T10:16:15.022Z,1.10
2022-10-19T10:18:52.894Z,0.90
2022-10-19T10:21:27.130Z,0.83
2022-10-19T10:24:05.995Z,1.10
2022-10-19T10:26:40.408Z,1.43
2022-10-19T10:29:19.552Z,0.90
2022-10-19T10:31:50.303Z,1.10
2022-10-19T10:34:45.326Z,1.17
2022-10-19T10:37:21.410Z,1.10
2022-10-19T10:39:52.804Z,1.00
2022-10-19T10:42:25.738Z,1.00
2022-10-19T10:44:56.506Z,1.20
2022-10-19T10:47:27.250Z,1.00
2022-10-19T10:49:57.902Z,1.30
2022-10-19T10:52:29.593Z,1.00
2022-10-19T10:55:03.882Z,1.00
2022-10-19T10:57:34.910Z,1.20
2022-10-19T11:00:08.274Z,1.20
2022-10-19T11:02:42.677Z,1.03
2022-10-19T11:05:16.445Z,1.13
2022-10-19T11:07:47.626Z,1.13
2022-10-19T11:10:24.916Z,1.20
2022-10-19T11:12:58.948Z,1.00
2022-10-19T11:15:32.541Z,1.10
2022-10-19T11:18:16.516Z,1.13
2022-10-19T11:20:54.255Z,0.90
2022-10-19T11:23:35.066Z,0.90
2022-10-19T11:26:16.661Z,1.10
2022-10-19T11:28:58.216Z,0.90
2022-10-19T11:31:43.175Z,1.13
2022-10-19T11:34:26.750Z,0.90
2022-10-19T11:37:00.673Z,1.03
2022-10-19T11:39:42.057Z,0.97
2022-10-19T11:42:20.321Z,1.07
2022-10-19T11:45:03.278Z,1.10
2022-10-19T11:47:51.382Z,1.27
2022-10-19T11:50:32.119Z,1.40
2022-10-19T11:53:11.482Z,1.10
2022-10-19T11:55:46.633Z,1.07
2022-10-19T11:58:39.273Z,1.10
2022-10-19T12:01:15.382Z,1.47
2022-10-19T12:04:07.935Z,1.07
2022-10-19T12:06:46.982Z,1.10
2022-10-19T12:09:29.373Z,1.10
2022-10-19T12:12:20.518Z,1.20
2022-10-19T12:14:53.201Z,1.13
2022-10-19T12:17:28.026Z,1.13
2022-10-19T12:19:59.858Z,1.40
2022-10-19T12:22:31.367Z,1.00
2022-10-19T12:25:08.183Z,1.20
2022-10-19T12:27:38.907Z,1.23
2022-10-19T12:30:14.988Z,1.40
2022-10-19T12:32:54.319Z,1.30
2022-10-19T12:35:34.499Z,1.20
2022-10-19T12:38:11.782Z,1.07
2022-10-19T12:40:44.831Z,1.10
2022-10-19T12:43:18.466Z,1.07
2022-10-19T12:45:53.340Z,1.47
2022-10-19T12:48:24.672Z,1.37
2022-10-19T12:51:19.725Z,1.50
2022-10-19T12:53:50.197Z,1.07
2022-10-19T12:56:21.783Z,1.50
2022-10-19T12:58:56.228Z,1.20
2022-10-19T13:01:28.968Z,1.67
2022-10-19T13:04:11.905Z,1.40
2022-10-19T13:06:43.002Z,1.20
2022-10-19T13:09:24.201Z,1.10
2022-10-19T13:12:29.919Z,1.30
2022-10-19T13:14:59.077Z,1.47
2022-10-19T13:17:53.630Z,1.13
2022-10-19T13:20:58.742Z,1.30
2022-10-19T13:23:43.166Z,1.07
2022-10-19T13:26:32.359Z,1.13
2022-10-19T13:29:00.639Z,1.10
2022-10-19T13:31:30.272Z,1.03
2022-10-19T13:34:00.895Z,1.20
2022-10-19T13:36:28.716Z,1.20
2022-10-19T13:39:18.138Z,1.20
2022-10-19T13:41:51.387Z,1.60
2022-10-19T13:44:25.117Z,1.40
2022-10-19T13:47:31.355Z,1.60
2022-10-19T13:50:38.147Z,1.20
2022-10-19T13:53:22.876Z,1.10
2022-10-19T13:56:07.467Z,1.17
2022-10-19T13:59:08.979Z,1.40
2022-10-19T14:01:51.371Z,1.40
2022-10-19T14:04:26.379Z,1.57
2022-10-19T14:06:59.212Z,1.60
2022-10-19T14:09:48.390Z,1.30
2022-10-19T14:12:23.466Z,1.40
2022-10-19T14:14:53.725Z,1.07
2022-10-19T14:17:24.721Z,1.67
2022-10-19T14:19:54.620Z,1.47
2022-10-19T14:22:30.026Z,1.27
2022-10-19T14:25:02.947Z,1.17
2022-10-19T14:27:31.972Z,1.30
2022-10-19T14:30:00.152Z,1.10
2022-10-19T14:32:30.167Z,1.20
2022-10-19T14:37:34.037Z,1.40
2022-10-19T14:40:05.789Z,1.60
2022-10-19T14:42:42.511Z,1.23
2022-10-19T14:45:15.782Z,1.30
2022-10-19T14:48:02.762Z,1.37
2022-10-19T14:50:44.049Z,1.37
2022-10-19T14:53:36.545Z,1.30
2022-10-19T14:56:09.722Z,1.20
2022-10-19T14:58:42.746Z,1.40
2022-10-19T15:01:12.502Z,1.40
2022-10-19T15:03:44.098Z,1.60
2022-10-19T15:06:21.186Z,1.57
2022-10-19T15:11:27.238Z,1.63
2022-10-19T15:14:02.827Z,1.60
2022-10-19T15:16:43.686Z,1.50
2022-10-19T15:19:21.759Z,1.33
2022-10-19T15:22:07.087Z,1.67
2022-10-19T15:24:38.097Z,1.70
2022-10-19T15:27:11.456Z,1.40
2022-10-19T15:29:40.282Z,1.50
2022-10-19T15:32:16.106Z,1.30
2022-10-19T15:34:45.750Z,2.10
2022-10-19T15:37:19.644Z,1.40
2022-10-19T15:39:49.374Z,1.37
2022-10-19T15:42:36.179Z,1.40
2022-10-19T15:45:05.174Z,1.50
2022-10-19T15:47:33.408Z,1.50
2022-10-19T15:50:02.812Z,1.30
2022-10-19T15:52:33.388Z,1.30
2022-10-19T15:55:03.273Z,1.43
2022-10-19T15:57:34.035Z,1.50
2022-10-19T16:00:08.031Z,1.73
2022-10-19T16:02:35.819Z,1.20
2022-10-19T16:05:03.790Z,1.60
2022-10-19T16:07:34.852Z,1.60
2022-10-19T16:10:05.338Z,1.40
2022-10-19T16:12:34.843Z,2.30
2022-10-19T16:15:02.496Z,1.80
2022-10-19T16:17:30.303Z,1.40
2022-10-19T16:19:58.057Z,1.20
2022-10-19T16:22:26.980Z,1.20
2022-10-19T16:24:54.808Z,1.30
2022-10-19T16:27:24.541Z,1.23
2022-10-19T16:29:52.890Z,1.17
2022-10-19T16:32:20.991Z,1.60
2022-10-19T16:34:49.877Z,1.30
2022-10-19T16:37:18.165Z,1.27
2022-10-19T16:39:46.303Z,1.03
2022-10-19T16:42:14.320Z,1.77
2022-10-19T16:44:45.395Z,1.20
2022-10-19T16:47:14.170Z,1.40
2022-10-19T16:49:42.287Z,1.97
2022-10-19T16:52:14.303Z,1.80
2022-10-19T16:54:42.217Z,1.70
2022-10-19T16:57:10.242Z,1.43
2022-10-19T16:59:38.293Z,1.60
2022-10-19T17:02:07.806Z,1.43
2022-10-19T17:04:36.015Z,1.73
2022-10-19T17:07:03.978Z,1.53
2022-10-19T17:09:49.700Z,1.60
2022-10-19T17:12:20.005Z,1.47
2022-10-19T17:14:48.128Z,2.00
2022-10-19T17:17:18.476Z,2.20
2022-10-19T17:19:46.447Z,2.23
2022-10-19T17:22:14.475Z,1.67
2022-10-19T17:24:42.209Z,1.70
2022-10-19T17:27:10.233Z,1.60
2022-10-19T17:29:38.384Z,1.40
2022-10-19T17:32:06.896Z,1.20
2022-10-19T17:34:36.144Z,1.50
2022-10-19T17:37:05.517Z,1.20
2022-10-19T17:39:33.357Z,1.40
2022-10-19T17:42:03.309Z,1.30
2022-10-19T17:44:31.912Z,1.37
2022-10-19T17:47:01.130Z,1.67
2022-10-19T17:49:29.748Z,1.03
2022-10-19T17:51:59.713Z,1.43
2022-10-19T17:54:27.705Z,1.60
2022-10-19T17:56:55.863Z,1.40
2022-10-19T17:59:34.666Z,1.50
2022-10-19T18:02:04.457Z,1.80
2022-10-19T18:04:32.549Z,1.60
2022-10-19T18:07:01.959Z,1.80
2022-10-19T18:09:30.886Z,1.53
2022-10-19T18:12:01.403Z,2.13
2022-10-19T18:14:32.917Z,1.97
2022-10-19T18:17:00.883Z,1.80
2022-10-19T18:19:28.915Z,1.70
2022-10-19T18:21:57.005Z,1.80
2022-10-19T18:24:26.965Z,2.63
2022-10-19T18:26:54.887Z,2.03
2022-10-19T18:29:24.464Z,2.00
2022-10-19T18:31:53.491Z,1.93
2022-10-19T18:34:24.454Z,1.50
2022-10-19T18:36:53.373Z,2.13
2022-10-19T18:39:21.726Z,2.53
2022-10-19T18:41:54.758Z,2.43
2022-10-19T18:44:26.586Z,2.13
2022-10-19T18:46:55.603Z,2.00
2022-10-19T18:49:24.123Z,1.80
2022-10-19T18:51:55.313Z,1.90
2022-10-19T18:54:24.279Z,2.40
2022-10-19T18:56:53.613Z,2.13
2022-10-19T18:59:21.588Z,2.33
2022-10-19T19:01:49.516Z,2.20
2022-10-19T19:04:17.277Z,2.13
2022-10-19T19:06:45.341Z,2.40
2022-10-19T19:09:14.761Z,2.47
2022-10-19T19:11:42.852Z,1.87
2022-10-19T19:14:15.702Z,2.13
2022-10-19T19:16:44.698Z,2.00
2022-10-19T19:19:15.160Z,2.00
2022-10-19T19:21:44.476Z,1.60
2022-10-19T19:24:15.679Z,3.23
2022-10-19T19:26:46.892Z,1.87
2022-10-19T19:29:17.160Z,1.73
2022-10-19T19:31:45.087Z,2.00
2022-10-19T19:34:13.407Z,1.93
2022-10-19T19:36:47.298Z,1.80
2022-10-19T19:39:16.551Z,1.87
2022-10-19T19:41:44.816Z,1.70
2022-10-19T19:44:12.938Z,1.60
2022-10-19T19:46:42.343Z,2.00
2022-10-19T19:49:10.624Z,1.77
2022-10-19T19:51:38.387Z,1.83
2022-10-19T19:54:06.377Z,1.90
2022-10-19T19:56:34.726Z,1.70
2022-10-19T19:59:04.742Z,1.90
2022-10-19T20:01:33.624Z,1.80
2022-10-19T20:06:31.739Z,1.97
2022-10-19T20:08:59.826Z,3.20
2022-10-19T20:11:29.856Z,1.60
2022-10-19T20:13:58.132Z,1.50
2022-10-19T20:16:29.412Z,1.40
2022-10-19T20:19:01.173Z,1.50
2022-10-19T20:21:31.831Z,1.40
2022-10-19T20:23:59.730Z,1.43
2022-10-19T20:26:27.948Z,1.30
2022-10-19T20:28:56.953Z,1.33
2022-10-19T20:31:25.962Z,1.30
2022-10-19T20:33:54.474Z,1.50
2022-10-19T20:36:24.252Z,1.50
2022-10-19T20:38:55.828Z,1.70
2022-10-19T20:41:25.929Z,1.20
2022-10-19T20:43:55.203Z,1.33
2022-10-19T20:46:24.775Z,1.40
2022-10-19T20:48:54.776Z,1.63
2022-10-19T20:51:30.725Z,2.00
2022-10-19T20:54:03.374Z,1.20
2022-10-19T20:56:34.006Z,1.00
2022-10-19T20:59:04.289Z,1.70
2022-10-19T21:01:35.013Z,1.07
2022-10-19T21:04:05.002Z,1.20
2022-10-19T21:06:34.583Z,1.30
2022-10-19T21:09:05.245Z,1.30
2022-10-19T21:11:35.170Z,1.20
2022-10-19T21:14:04.809Z,1.20
2022-10-19T21:16:34.119Z,1.40
2022-10-19T21:19:03.454Z,1.20
2022-10-19T21:21:33.850Z,1.37
2022-10-19T21:24:06.252Z,1.23
2022-10-19T21:26:36.758Z,1.20
2022-10-19T21:29:06.253Z,1.20
2022-10-19T21:31:34.276Z,1.30
2022-10-19T21:34:05.518Z,1.20
2022-10-19T21:36:34.600Z,1.40
2022-10-19T21:39:04.890Z,1.20
2022-10-19T21:41:33.614Z,1.27
2022-10-19T21:44:01.689Z,1.80
2022-10-19T21:46:29.850Z,1.40
2022-10-19T21:48:57.952Z,1.60
2022-10-19T21:51:34.608Z,1.37
2022-10-19T21:54:05.233Z,1.47
2022-10-19T21:56:34.458Z,1.60
2022-10-19T21:59:02.283Z,1.40
2022-10-19T22:01:37.308Z,1.57
2022-10-19T22:04:16.533Z,1.57
2022-10-19T22:06:46.012Z,1.47
2022-10-19T22:09:18.903Z,1.20
2022-10-19T22:11:47.699Z,1.40
2022-10-19T22:14:17.385Z,1.20
2022-10-19T22:16:45.528Z,1.43
2022-10-19T22:19:14.453Z,1.30
2022-10-19T22:21:42.466Z,1.70
2022-10-19T22:24:12.946Z,1.40
2022-10-19T22:26:45.427Z,1.30
2022-10-19T22:29:13.666Z,1.47
2022-10-19T22:31:43.758Z,1.50
2022-10-19T22:34:14.869Z,1.50
2022-10-19T22:36:43.302Z,1.67
2022-10-19T22:39:11.437Z,1.43
2022-10-19T22:41:39.215Z,1.60
2022-10-19T22:44:08.795Z,1.83
2022-10-19T22:46:36.794Z,1.40
2022-10-19T22:49:05.150Z,1.40
2022-10-19T22:51:33.189Z,1.53
2022-10-19T22:54:01.028Z,2.13
2022-10-19T22:56:30.315Z,1.50
2022-10-19T22:58:59.831Z,1.83
2022-10-19T23:01:30.850Z,2.20
2022-10-19T23:03:58.912Z,1.50
2022-10-19T23:06:28.057Z,1.43
2022-10-19T23:08:56.234Z,1.40
2022-10-19T23:11:24.477Z,1.50
2022-10-19T23:13:53.007Z,1.70
2022-10-19T23:16:21.027Z,1.60
2022-10-19T23:18:50.444Z,1.80
2022-10-19T23:21:18.386Z,1.70
2022-10-19T23:23:48.418Z,1.80
2022-10-19T23:26:18.803Z,1.60
2022-10-19T23:28:48.774Z,1.90
2022-10-19T23:31:20.160Z,1.53
2022-10-19T23:33:48.258Z,1.80
2022-10-19T23:36:20.058Z,1.77
2022-10-19T23:38:49.710Z,2.10
2022-10-19T23:41:18.821Z,1.57
2022-10-19T23:43:46.615Z,1.70
2022-10-19T23:46:14.926Z,1.83
2022-10-19T23:48:42.925Z,2.17
2022-10-19T23:51:13.311Z,2.10
2022-10-19T23:53:44.819Z,2.57
2022-10-19T23:56:14.980Z,1.90
2022-10-19T23:58:43.135Z,2.00
